KACT

Waco Regional Airport

Waco, Texas, USA
METAR KACT 171351Z 20009KT 10SM CLR 28/21 A3007 RMK AO2 SLP174 T02830211
Observed Flight Rules
Aug-17 @ 13:51 UTC (an hour ago) Visual Flight Rules
Wind Visibility Clouds
200° at 9 knots 10 miles
  • Clear skies
Temperatures Readings
Current 28°C / 82°F
Dewpoint 21°C / 70°F
Humidity 66%
Altimeter 30.07" Hg
Pressure 1017.4 hPa
Elevation 151
METAR KACT 171351Z 20009KT 10SM CLR 28/21 A3007 RMK AO2 SLP174 T02830211
Observed Flight Rules
Aug-17 @ 13:51 UTC
(an hour ago)
VFR
Wind Visibility
200° at 9 knots 10 miles
Clouds
  • Clear skies
Temperature Dewpoint
28°C / 82°F 21°C / 70°F
Humidity Altimeter Pressure
66% 30.07" Hg 1017.4 hPa